METARs

lähialueen METAR Raportit

 

EFUT - Utti, Kouvola, FINLAND
Etäisyys asemasta: KA 0,7mi, 1km
Päivitetty: 27-01-2020 18:20
Light snow, Täysin pilvistä
Light snow, Täysin pilvistä
 Tuulen suunta IKA
Tuuli: IKA 10 mph , 17 km/h
Lämpötila: 23°F , -5°C
Hyytävyys: 13°F , -11°C
Kastepiste: 21°F , -6°C
Kosteus: 93%
Ilmanpaine: 29.77 inHg , 1008 hPa
Yhteenveto: Light Snow
Pilvisyys: Täysin pilvistä
Näkyvyys: 2 miles , 4 km
Pilveily: Partly Cloudy 1100 ft
Täysin pilvistä 2900 ft
2020/01/27 16:20 EFUT 271620Z AUTO 11009KT 3800 -SN SCT011 OVC029 M05/M06 Q1008
EFLP - Lappeenranta, FINLAND
Etäisyys asemasta: I 42mi, 67km
Päivitetty: 27-01-2020 18:20
Light snow, Täysin pilvistä
Light snow, Täysin pilvistä
 Tuulen suunta IKA
Tuuli: IKA 9 mph , 15 km/h
Lämpötila: 21°F , -6°C
Hyytävyys: 11°F , -12°C
Kastepiste: 18°F , -8°C
Kosteus: 86%
Ilmanpaine: 29.83 inHg , 1010 hPa
Yhteenveto: Light Snow
Pilvisyys: Täysin pilvistä
Näkyvyys: 4 miles , 6 km
Pilveily: Täysin pilvistä 3700 ft
2020/01/27 16:20 EFLP 271620Z AUTO 11008KT 070V150 6000 -SN OVC037 M06/M08 Q1010

Metar display script from Saratoga-Weather.org

Page generated in 1.02 seconds.